Forside
METAR-TAF:

METAR-TAF

Lufthavne :

Irkutsk, Rusland

Breddekreds: 52-16N, længdekreds: 104-19E, højde: 513 m

Aktuelle vejr

Denne rapport blev lavet for 16 minutter siden, kl. 00:30 UTC
Vind stille
Temperatur -15°C
Fugtighed 92%
Tryk 1028 hPa
Sigt 10 km eller mere
ingen skyer under 1500m og ingen cumulonimbus

METAR: UIII 240030Z 00000MPS CAVOK M15/M16 Q1028 R30/CLRD60 NOSIG RMK QFE726/0968

Tid: 08:46 (00:46 UTC)

Vejrudsigter

Denne rapport blev lavet for 1 time og 46 minutter siden, kl. 23:00 UTC
Foreløbig gælder fra 24 på 00 UTC til 24 på 24 UTC
Vind 6 kt fra sydsydøst
Sigt 10 km eller mere
ingen skyer under 1500m og ingen cumulonimbus

TAF: UIII 232300Z 2400/2424 16003MPS CAVOK

Vejrobservationer og prognoser fra mere end 4000 lufthavne (METAR og TAF).

De gule og røde prikker repræsenterer de meteorologiske stationer.

Flyt musen over at se navnet på stationen.

Så klik over at se vejr observationer og prognoser.

At skifte det kort: Klik på de grønne knapper med et sort kors for at zoome ind; på den grønne knap med en bindestreg for at zoome ud; eller på de grønne pile for tilstødende kort.


METAR-TAF: